Главная страница
METAR-TAF:

METAR-TAF

Аэропорты :

Пермь, Россия

широта: 58-00N, долгота: 056-15E, высота над уровнем моря: 170 м

Текущие метеонаблюдения

Эта сводка был подготовлена 28 минут назад, в 20:00 UTC
Ветер 4 Узел от западно-северо-западный
Температура 5°C
Влажность 100%
Давление 1009 hPa
Видимость 10 км и более
Рассеянная облачность на высоте 3300 фута

METAR: USPP 172000Z 30002MPS 9999 BKN033 05/05 Q1009 R21/290250 TEMPO 3000 -RA BKN011 RMK QFE746

Время: 01:28 (20:28 UTC)

Прогноз

Эта сводка был подготовлена 3 часа и 32 минут назад, в 16:56 UTC
Прогноз действительный с 17-го 18 UTC до 18-го 18 UTC
Ветер 6 Узел от северо-западный с порывами до 17 Узел
Видимость: 6000 м
Рассеянная облачность на высоте 1600 фута, Кучево-дождевые.
небольшие ливневые дожди
изменения
С 18-го 02 UTC до 18-го 03 UTC
Ветер 6 Узел от северо-западный с порывами до 27 Узел

TAF: USPP 171656Z 1718/1818 31003G09MPS 6000 -SHRA BKN016CB BECMG 1802/1803 32003G14MPS

Метеонаблюдения и прогнозы для более 4000 аэропортов (сводки METAR и TAF).

Имеющиеся станции представлены на карте желтыми и красными точками.

Чтобы увидеть название станции, наведите на нее мышь.

Затем щелкните, чтобы увидеть метеонаблюдения и метеопрогнозы.

Управление картой: чтобы увеличить масштаб, щелкните зеленые кнопки с черным крестиком; чтобы уменьшить масштаб, щелкните зеленую кнопку с тире; для просмотра соседних карт щелкайте зеленые стрелки.


METAR-TAF: